createdAt,value
2023-01-15T00:03:14.295Z,8.80
2023-01-15T00:08:16.600Z,8.20
2023-01-15T00:13:24.851Z,9.90
2023-01-15T00:18:26.584Z,8.70
2023-01-15T00:23:46.959Z,8.60
2023-01-15T00:28:49.011Z,6.00
2023-01-15T00:33:51.348Z,5.70
2023-01-15T00:38:53.326Z,6.70
2023-01-15T00:43:55.493Z,5.70
2023-01-15T00:48:57.182Z,9.30
2023-01-15T00:53:59.497Z,7.50
2023-01-15T00:59:03.286Z,7.40
2023-01-15T01:04:15.698Z,5.30
2023-01-15T01:09:17.407Z,5.70
2023-01-15T01:14:19.145Z,7.40
2023-01-15T01:19:23.191Z,6.10
2023-01-15T01:24:24.948Z,9.40
2023-01-15T01:29:26.662Z,6.20
2023-01-15T01:34:28.476Z,7.30
2023-01-15T01:39:30.141Z,7.50
2023-01-15T01:44:34.903Z,5.70
2023-01-15T01:49:40.237Z,7.70
2023-01-15T01:54:46.378Z,9.30
2023-01-15T01:59:49.581Z,8.70
2023-01-15T02:04:52.420Z,6.40
2023-01-15T02:09:54.114Z,5.00
2023-01-15T02:15:22.391Z,7.20
2023-01-15T02:20:41.396Z,7.20
2023-01-15T02:26:20.420Z,4.80
2023-01-15T02:31:42.287Z,4.60
2023-01-15T02:36:50.510Z,5.10
2023-01-15T02:42:03.939Z,6.10
2023-01-15T02:47:11.927Z,6.70
2023-01-15T02:52:20.262Z,4.70
2023-01-15T02:57:25.939Z,4.50
2023-01-15T03:02:36.003Z,3.40
2023-01-15T03:07:48.161Z,4.80
2023-01-15T03:13:02.980Z,4.90
2023-01-15T03:18:15.308Z,3.50
2023-01-15T03:23:22.223Z,3.00
2023-01-15T03:28:31.562Z,3.40
2023-01-15T03:33:35.133Z,3.00
2023-01-15T03:38:39.079Z,2.80
2023-01-15T03:44:18.173Z,3.00
2023-01-15T03:49:42.299Z,3.60
2023-01-15T03:55:05.550Z,4.70
2023-01-15T04:00:26.886Z,3.60
2023-01-15T04:05:32.272Z,3.20
2023-01-15T04:10:34.367Z,5.90
2023-01-15T04:15:38.262Z,3.90
2023-01-15T04:20:40.481Z,2.90
2023-01-15T04:25:43.286Z,4.20
2023-01-15T04:30:46.444Z,2.50
2023-01-15T04:35:48.375Z,4.40
2023-01-15T04:41:08.645Z,4.30
2023-01-15T04:46:10.579Z,4.70
2023-01-15T04:51:12.923Z,5.70
2023-01-15T04:56:14.620Z,7.70
2023-01-15T05:01:17.870Z,5.90
2023-01-15T05:06:19.814Z,5.10
2023-01-15T05:11:21.693Z,3.90
2023-01-15T05:16:26.481Z,4.60
2023-01-15T05:21:31.934Z,6.40
2023-01-15T05:26:35.081Z,5.20
2023-01-15T05:31:37.032Z,5.50
2023-01-15T05:36:39.096Z,5.70
2023-01-15T05:41:50.347Z,4.80
2023-01-15T05:46:55.151Z,5.30
2023-01-15T05:51:58.603Z,4.80
2023-01-15T05:57:01.654Z,6.30
2023-01-15T06:02:03.432Z,6.90
2023-01-15T06:07:05.433Z,4.00
2023-01-15T06:12:07.322Z,6.40
2023-01-15T06:17:09.020Z,9.20
2023-01-15T06:22:11.120Z,7.40
2023-01-15T06:27:13.006Z,4.60
2023-01-15T06:32:15.240Z,6.40
2023-01-15T06:37:17.250Z,5.10
2023-01-15T06:42:37.879Z,8.00
2023-01-15T06:47:39.752Z,8.40
2023-01-15T06:52:41.535Z,7.70
2023-01-15T06:57:43.239Z,7.90
2023-01-15T07:02:44.952Z,10.80
2023-01-15T07:07:46.659Z,8.10
2023-01-15T07:12:48.331Z,13.20
2023-01-15T07:17:54.671Z,12.70
2023-01-15T07:22:56.500Z,6.80
2023-01-15T07:27:58.169Z,9.10
2023-01-15T07:32:59.970Z,8.60
2023-01-15T07:38:01.643Z,7.60
2023-01-15T07:43:22.005Z,9.70
2023-01-15T07:48:42.672Z,9.90
2023-01-15T07:53:44.394Z,6.50
2023-01-15T07:58:50.148Z,8.20
2023-01-15T08:03:51.870Z,7.90
2023-01-15T08:08:53.683Z,6.00
2023-01-15T08:14:14.022Z,6.40
2023-01-15T08:19:15.998Z,7.70
2023-01-15T08:24:18.039Z,8.80
2023-01-15T08:29:20.466Z,10.30
2023-01-15T08:34:22.409Z,7.80
2023-01-15T08:39:24.129Z,9.00
2023-01-15T08:44:26.196Z,7.40
2023-01-15T08:49:28.210Z,5.40
2023-01-15T08:54:30.199Z,7.40
2023-01-15T08:59:31.871Z,7.60
2023-01-15T09:04:33.604Z,8.10
2023-01-15T09:09:35.490Z,10.10
2023-01-15T09:15:00.311Z,7.10
2023-01-15T09:19:59.502Z,11.30
2023-01-15T09:25:05.581Z,10.10
2023-01-15T09:30:21.820Z,11.20
2023-01-15T09:35:23.839Z,10.20
2023-01-15T09:40:46.855Z,9.20
2023-01-15T09:46:07.909Z,5.90
2023-01-15T09:51:58.969Z,13.40
2023-01-15T09:57:01.672Z,7.00
2023-01-15T10:02:31.611Z,7.40
2023-01-15T10:07:51.341Z,8.20
2023-01-15T10:13:00.711Z,6.30
2023-01-15T10:18:02.783Z,5.20
2023-01-15T10:23:25.740Z,5.20
2023-01-15T10:29:03.658Z,8.20
2023-01-15T10:34:27.576Z,10.10
2023-01-15T10:39:51.321Z,8.60
2023-01-15T10:45:10.827Z,8.40
2023-01-15T10:50:20.350Z,14.40
2023-01-15T10:55:32.602Z,12.80
2023-01-15T11:00:34.941Z,15.90
2023-01-15T11:05:38.810Z,17.70
2023-01-15T11:10:41.498Z,16.60
2023-01-15T11:16:07.536Z,14.70
2023-01-15T11:21:31.969Z,11.00
2023-01-15T11:26:34.607Z,14.70
2023-01-15T11:31:38.591Z,9.30
2023-01-15T11:36:40.410Z,9.40
2023-01-15T11:42:00.626Z,8.80
2023-01-15T11:47:22.241Z,6.00
2023-01-15T11:52:26.241Z,8.30
2023-01-15T11:57:31.461Z,7.80
2023-01-15T12:02:48.337Z,6.80
2023-01-15T12:07:53.164Z,10.20
2023-01-15T12:13:09.422Z,8.40
2023-01-15T12:18:24.497Z,11.60
2023-01-15T12:23:32.317Z,9.10
2023-01-15T12:28:40.610Z,7.60
2023-01-15T12:33:57.996Z,10.60
2023-01-15T12:39:29.116Z,10.20
2023-01-15T12:44:58.159Z,10.20
2023-01-15T12:50:21.491Z,10.00
2023-01-15T12:55:29.152Z,10.50
2023-01-15T13:00:36.430Z,8.70
2023-01-15T13:05:50.809Z,11.40
2023-01-15T13:10:53.200Z,13.80
2023-01-15T13:15:57.912Z,12.10
2023-01-15T13:21:09.628Z,13.10
2023-01-15T13:26:23.489Z,12.80
2023-01-15T13:31:51.203Z,13.60
2023-01-15T13:36:57.937Z,14.50
2023-01-15T13:42:29.811Z,12.00
2023-01-15T13:47:34.816Z,13.50
2023-01-15T13:52:38.038Z,17.30
2023-01-15T13:57:41.912Z,34.70
2023-01-15T14:03:00.118Z,33.60
2023-01-15T14:08:14.352Z,30.40
2023-01-15T14:13:47.015Z,30.50
2023-01-15T14:19:22.798Z,23.50
2023-01-15T14:24:48.167Z,16.30
2023-01-15T14:30:20.809Z,18.10
2023-01-15T14:35:25.167Z,10.30
2023-01-15T14:40:33.181Z,9.40
2023-01-15T14:45:40.857Z,7.60
2023-01-15T14:50:44.071Z,10.00
2023-01-15T14:56:10.356Z,11.50
2023-01-15T15:01:21.172Z,20.00
2023-01-15T15:06:23.312Z,44.20
2023-01-15T15:11:57.353Z,51.50
2023-01-15T15:17:04.814Z,45.50
2023-01-15T15:22:13.420Z,30.60
2023-01-15T15:27:16.254Z,35.10
2023-01-15T15:32:24.518Z,32.00
2023-01-15T15:37:28.274Z,26.90
2023-01-15T15:42:56.214Z,23.40
2023-01-15T15:48:17.263Z,36.90
2023-01-15T15:53:18.947Z,32.10
2023-01-15T15:58:32.976Z,28.20
2023-01-15T16:03:34.800Z,17.10
2023-01-15T16:08:36.799Z,14.10
2023-01-15T16:13:42.902Z,16.70
2023-01-15T16:18:48.812Z,12.30
2023-01-15T16:24:03.049Z,8.30
2023-01-15T16:29:07.385Z,9.40
2023-01-15T16:34:19.597Z,9.60
2023-01-15T16:39:29.532Z,10.00
2023-01-15T16:44:52.626Z,12.10
2023-01-15T16:50:23.828Z,12.50
2023-01-15T16:55:34.577Z,12.10
2023-01-15T17:05:38.255Z,9.80
2023-01-15T17:10:42.287Z,7.60
2023-01-15T17:15:44.213Z,10.30
2023-01-15T17:20:46.153Z,15.10
2023-01-15T17:25:48.141Z,14.70
2023-01-15T17:30:52.704Z,15.60
2023-01-15T17:35:56.532Z,14.10
2023-01-15T17:40:59.458Z,16.00
2023-01-15T17:46:01.468Z,11.90
2023-01-15T17:51:05.299Z,8.30
2023-01-15T17:56:26.223Z,8.90
2023-01-15T18:01:57.354Z,9.50
2023-01-15T18:07:01.742Z,9.00
2023-01-15T18:12:04.069Z,6.20
2023-01-15T18:17:06.039Z,6.90
2023-01-15T18:22:07.995Z,8.90
2023-01-15T18:27:10.385Z,10.30
2023-01-15T18:32:12.382Z,8.40
2023-01-15T18:37:14.073Z,9.30
2023-01-15T18:42:15.848Z,6.80
2023-01-15T18:47:17.897Z,7.00
2023-01-15T18:52:38.277Z,8.30
2023-01-15T18:57:39.975Z,7.50
2023-01-15T19:02:42.266Z,7.70
2023-01-15T19:07:44.848Z,6.80
2023-01-15T19:12:46.818Z,9.50
2023-01-15T19:18:07.358Z,9.10
2023-01-15T19:23:09.572Z,7.30
2023-01-15T19:28:17.893Z,9.00
2023-01-15T19:33:19.609Z,10.40
2023-01-15T19:38:21.282Z,7.60
2023-01-15T19:43:41.647Z,8.90
2023-01-15T19:49:02.439Z,10.60
2023-01-15T19:54:06.269Z,11.40
2023-01-15T19:59:08.232Z,12.50
2023-01-15T20:04:09.890Z,11.00
2023-01-15T20:09:11.579Z,12.50
2023-01-15T20:14:13.465Z,9.20
2023-01-15T20:19:15.382Z,8.20
2023-01-15T20:24:17.126Z,12.60
2023-01-15T20:29:18.990Z,12.30
2023-01-15T20:34:20.883Z,13.00
2023-01-15T20:39:23.188Z,23.30
2023-01-15T20:44:43.456Z,15.70
2023-01-15T20:49:46.781Z,13.70
2023-01-15T20:54:48.477Z,13.00
2023-01-15T20:59:50.189Z,13.20
2023-01-15T21:04:51.879Z,13.40
2023-01-15T21:09:53.846Z,13.20
2023-01-15T21:14:55.659Z,10.00
2023-01-15T21:19:57.350Z,15.10
2023-01-15T21:24:59.025Z,12.20
2023-01-15T21:30:00.715Z,14.50
2023-01-15T21:35:02.431Z,15.90
2023-01-15T21:40:04.784Z,17.80
2023-01-15T21:45:08.148Z,15.00
2023-01-15T21:50:10.568Z,13.80
2023-01-15T21:55:13.293Z,18.70
2023-01-15T22:00:17.254Z,16.80
2023-01-15T22:05:18.957Z,21.50
2023-01-15T22:10:20.776Z,16.70
2023-01-15T22:15:28.950Z,26.10
2023-01-15T22:20:30.798Z,19.90
2023-01-15T22:25:32.586Z,17.50
2023-01-15T22:30:37.680Z,18.10
2023-01-15T22:35:39.745Z,19.80
2023-01-15T22:40:41.455Z,20.00
2023-01-15T22:45:43.321Z,17.20
2023-01-15T22:50:45.019Z,18.10
2023-01-15T22:55:55.698Z,18.40
2023-01-15T23:00:57.821Z,21.20
2023-01-15T23:06:03.900Z,19.00
2023-01-15T23:11:10.906Z,19.10
2023-01-15T23:16:12.670Z,18.30
2023-01-15T23:21:20.482Z,24.00
2023-01-15T23:26:22.883Z,28.10
2023-01-15T23:31:33.962Z,25.00
2023-01-15T23:36:35.782Z,16.60
2023-01-15T23:41:56.111Z,16.60
2023-01-15T23:46:57.776Z,16.80
2023-01-15T23:51:59.842Z,26.40
2023-01-15T23:57:02.111Z,25.10
